createdAt,value
2019-04-30T00:00:13.162Z,102000.78
2019-04-30T00:02:52.115Z,102003.58
2019-04-30T00:05:19.902Z,102007.25
2019-04-30T00:07:50.894Z,102005.44
2019-04-30T00:10:17.262Z,102012.59
2019-04-30T00:12:45.339Z,102005.41
2019-04-30T00:15:16.198Z,102010.84
2019-04-30T00:17:42.596Z,102010.27
2019-04-30T00:20:10.375Z,101895.82
2019-04-30T00:22:45.463Z,102005.83
2019-04-30T00:25:07.869Z,102007.20
2019-04-30T00:27:35.724Z,102007.59
2019-04-30T00:30:08.809Z,102001.71
2019-04-30T00:32:37.211Z,102002.19
2019-04-30T00:35:03.991Z,102003.61
2019-04-30T00:37:32.041Z,101952.57
2019-04-30T00:39:59.801Z,102004.66
2019-04-30T00:42:28.680Z,102006.28
2019-04-30T00:44:59.685Z,101998.93
2019-04-30T00:47:26.319Z,101999.25
2019-04-30T00:49:57.530Z,101996.73
2019-04-30T00:52:25.197Z,101993.17
2019-04-30T00:54:55.232Z,101904.55
2019-04-30T00:57:22.761Z,101989.70
2019-04-30T00:59:50.530Z,101992.00
2019-04-30T01:02:42.880Z,101983.46
2019-04-30T01:05:12.862Z,101979.43
2019-04-30T01:07:47.972Z,101972.15
2019-04-30T01:10:12.034Z,101903.77
2019-04-30T01:12:44.962Z,101974.20
2019-04-30T01:15:13.078Z,101964.94
2019-04-30T01:17:40.703Z,101956.64
2019-04-30T01:20:09.404Z,101968.38
2019-04-30T01:22:38.870Z,101970.16
2019-04-30T01:25:12.166Z,101963.84
2019-04-30T01:27:45.778Z,101976.49
2019-04-30T01:30:13.353Z,101950.55
2019-04-30T01:32:39.478Z,101979.55
2019-04-30T01:35:08.872Z,101974.61
2019-04-30T01:37:38.578Z,101971.10
2019-04-30T01:40:10.631Z,101965.46
2019-04-30T01:42:36.009Z,101956.98
2019-04-30T01:45:03.785Z,101963.55
2019-04-30T01:47:31.543Z,101967.60
2019-04-30T01:50:01.018Z,101966.27
2019-04-30T01:52:49.354Z,101962.64
2019-04-30T01:55:19.678Z,101967.67
2019-04-30T01:57:56.454Z,101965.72
2019-04-30T02:00:30.300Z,101963.00
2019-04-30T02:02:59.238Z,101966.31
2019-04-30T02:05:28.715Z,101964.09
2019-04-30T02:07:58.404Z,101966.86
2019-04-30T02:10:28.403Z,101967.68
2019-04-30T02:12:56.049Z,101964.07
2019-04-30T02:15:23.799Z,101962.36
2019-04-30T02:17:51.585Z,101974.14
2019-04-30T02:20:19.511Z,101967.44
2019-04-30T02:22:48.614Z,101964.55
2019-04-30T02:25:16.583Z,101969.86
2019-04-30T02:27:44.512Z,101961.97
2019-04-30T02:30:12.275Z,101961.19
2019-04-30T02:32:40.094Z,101964.05
2019-04-30T02:35:30.018Z,101966.77
2019-04-30T02:38:16.502Z,101966.23
2019-04-30T02:40:44.446Z,101846.80
2019-04-30T02:43:12.239Z,101958.66
2019-04-30T02:45:40.237Z,101956.88
2019-04-30T02:48:11.388Z,101952.40
2019-04-30T02:50:39.293Z,101959.04
2019-04-30T02:53:09.778Z,101958.73
2019-04-30T02:55:42.528Z,101918.61
2019-04-30T02:58:10.315Z,101954.70
2019-04-30T03:00:39.423Z,101960.98
2019-04-30T03:03:10.080Z,101951.21
2019-04-30T03:05:39.113Z,101946.28
2019-04-30T03:08:06.451Z,101946.87
2019-04-30T03:10:34.206Z,101941.36
2019-04-30T03:13:01.958Z,101940.45
2019-04-30T03:15:30.074Z,101943.22
2019-04-30T03:18:09.904Z,101931.09
2019-04-30T03:20:49.707Z,101928.81
2019-04-30T03:23:19.523Z,101936.52
2019-04-30T03:25:49.994Z,101936.45
2019-04-30T03:28:19.942Z,101878.23
2019-04-30T03:30:52.028Z,101936.58
2019-04-30T03:33:16.038Z,101940.12
2019-04-30T03:35:48.280Z,101931.19
2019-04-30T03:38:13.533Z,101937.91
2019-04-30T03:40:41.386Z,101931.71
2019-04-30T03:43:11.315Z,101928.14
2019-04-30T03:45:40.242Z,101931.72
2019-04-30T03:48:10.161Z,101935.38
2019-04-30T03:50:50.304Z,101930.48
2019-04-30T03:53:10.226Z,101939.91
2019-04-30T03:55:36.925Z,101940.88
2019-04-30T03:58:04.679Z,101936.00
2019-04-30T04:00:46.555Z,101935.92
2019-04-30T04:03:13.265Z,101943.14
2019-04-30T04:05:45.857Z,101942.57
2019-04-30T04:08:39.560Z,101944.33
2019-04-30T04:11:15.154Z,101939.88
2019-04-30T04:13:42.975Z,101941.22
2019-04-30T04:16:10.749Z,101937.14
2019-04-30T04:18:40.238Z,101939.81
2019-04-30T04:21:15.991Z,101936.67
2019-04-30T04:23:39.940Z,101939.41
2019-04-30T04:26:09.245Z,101935.02
2019-04-30T04:28:36.622Z,101930.08
2019-04-30T04:31:04.500Z,101935.13
2019-04-30T04:33:32.244Z,101877.67
2019-04-30T04:36:00.001Z,101939.60
2019-04-30T04:38:30.197Z,101936.02
2019-04-30T04:40:59.928Z,101934.20
2019-04-30T04:43:26.935Z,101947.66
2019-04-30T04:45:54.702Z,101938.22
2019-04-30T04:48:23.130Z,101936.91
2019-04-30T04:50:51.345Z,101939.48
2019-04-30T04:53:19.612Z,101937.57
2019-04-30T04:55:49.969Z,101944.31
2019-04-30T04:58:21.176Z,101945.17
2019-04-30T05:00:49.277Z,101901.97
2019-04-30T05:03:29.884Z,101938.08
2019-04-30T05:06:01.803Z,101943.81
2019-04-30T05:08:28.469Z,101944.41
2019-04-30T05:10:56.300Z,101943.55
2019-04-30T05:13:24.218Z,101951.95
2019-04-30T05:15:52.038Z,101951.34
2019-04-30T05:18:22.511Z,101959.27
2019-04-30T05:20:49.347Z,101916.45
2019-04-30T05:23:17.230Z,101962.97
2019-04-30T05:25:45.014Z,101953.00
2019-04-30T05:28:13.059Z,101959.66
2019-04-30T05:30:40.789Z,101961.45
2019-04-30T05:33:08.946Z,101965.06
2019-04-30T05:35:38.885Z,101961.88
2019-04-30T05:38:09.325Z,101956.34
2019-04-30T05:40:39.900Z,101956.06
2019-04-30T05:43:08.728Z,101954.73
2019-04-30T05:45:44.194Z,101952.77
2019-04-30T05:48:12.020Z,101950.25
2019-04-30T05:50:40.041Z,101951.67
2019-04-30T05:53:08.992Z,101944.28
2019-04-30T05:55:36.958Z,101958.59
2019-04-30T05:58:04.836Z,101959.20
2019-04-30T06:00:32.772Z,101956.02
2019-04-30T06:03:00.755Z,101951.06
2019-04-30T06:05:28.643Z,101957.48
2019-04-30T06:07:56.469Z,101957.64
2019-04-30T06:10:36.852Z,101946.36
2019-04-30T06:13:11.642Z,101950.27
2019-04-30T06:16:04.312Z,101947.09
2019-04-30T06:18:32.085Z,101948.56
2019-04-30T06:20:59.958Z,101953.25
2019-04-30T06:23:29.322Z,101945.34
2019-04-30T06:26:06.838Z,101951.67
2019-04-30T06:28:29.200Z,101963.14
2019-04-30T06:30:59.132Z,101953.75
2019-04-30T06:33:28.972Z,101947.28
2019-04-30T06:35:56.537Z,101944.56
2019-04-30T06:38:24.320Z,101942.59
2019-04-30T06:40:52.104Z,101937.08
2019-04-30T06:43:20.002Z,101933.66
2019-04-30T06:45:48.874Z,101937.91
2019-04-30T06:48:19.751Z,101939.63
2019-04-30T06:50:49.102Z,101891.94
2019-04-30T06:53:16.838Z,101933.31
2019-04-30T06:55:44.640Z,101935.00
2019-04-30T06:58:15.471Z,101932.48
2019-04-30T07:00:42.030Z,101928.48
2019-04-30T07:03:10.116Z,101931.61
2019-04-30T07:05:38.925Z,101927.94
2019-04-30T07:08:36.086Z,101933.66
2019-04-30T07:11:12.186Z,101931.42
2019-04-30T07:13:42.172Z,101920.84
2019-04-30T07:16:10.993Z,101915.02
2019-04-30T07:18:38.897Z,101917.06
2019-04-30T07:21:08.608Z,101910.23
2019-04-30T07:23:36.147Z,101904.27
2019-04-30T07:26:05.415Z,101903.92
2019-04-30T07:28:46.569Z,101911.05
2019-04-30T07:31:11.649Z,101903.78
2019-04-30T07:33:32.256Z,101906.51
2019-04-30T07:36:01.748Z,101905.88
2019-04-30T07:38:29.827Z,101902.02
2019-04-30T07:40:59.143Z,101906.54
2019-04-30T07:43:28.846Z,101906.36
2019-04-30T07:45:59.687Z,101905.51
2019-04-30T07:48:26.679Z,101908.93
2019-04-30T07:50:54.606Z,101913.45
2019-04-30T07:53:22.387Z,101909.17
2019-04-30T07:55:52.344Z,101902.84
2019-04-30T07:58:20.641Z,101904.56
2019-04-30T08:00:56.047Z,101904.16
2019-04-30T08:03:31.432Z,101910.08
2019-04-30T08:06:01.768Z,101867.89
2019-04-30T08:08:30.472Z,101908.48
2019-04-30T08:10:59.191Z,101847.14
2019-04-30T08:13:31.959Z,101906.16
2019-04-30T08:15:59.676Z,101902.12
2019-04-30T08:18:29.445Z,101903.39
2019-04-30T08:20:59.035Z,101877.15
2019-04-30T08:23:34.978Z,101893.97
2019-04-30T08:26:01.709Z,101896.99
2019-04-30T08:28:30.450Z,101899.70
2019-04-30T08:30:58.952Z,101898.13
2019-04-30T08:33:29.074Z,101898.47
2019-04-30T08:35:56.508Z,101903.10
2019-04-30T08:38:24.288Z,101903.80
2019-04-30T08:40:56.116Z,101897.28
2019-04-30T08:43:21.710Z,101894.59
2019-04-30T08:45:49.572Z,101901.65
2019-04-30T08:48:18.988Z,101902.28
2019-04-30T08:50:49.146Z,101902.02
2019-04-30T08:53:26.616Z,101907.41
2019-04-30T08:55:46.002Z,101900.38
2019-04-30T08:58:15.199Z,101896.25
2019-04-30T09:00:43.487Z,101898.52
2019-04-30T09:03:11.422Z,101894.07
2019-04-30T09:06:04.846Z,101898.09
2019-04-30T09:08:32.958Z,101893.57
2019-04-30T09:11:00.756Z,101895.04
2019-04-30T09:13:28.745Z,101790.47
2019-04-30T09:15:56.682Z,101889.90
2019-04-30T09:18:24.527Z,101887.17
2019-04-30T09:20:52.281Z,101882.98
2019-04-30T09:23:20.073Z,101811.44
2019-04-30T09:26:23.698Z,101770.27
2019-04-30T09:28:51.482Z,101886.80
2019-04-30T09:31:19.752Z,101874.70
2019-04-30T09:33:49.270Z,101875.92
2019-04-30T09:36:20.533Z,101872.42
2019-04-30T09:38:48.494Z,101884.12
2019-04-30T09:41:16.196Z,101876.33
2019-04-30T09:43:54.579Z,101818.04
2019-04-30T09:46:26.729Z,101799.37
2019-04-30T09:48:51.885Z,101830.24
2019-04-30T09:51:21.242Z,101871.48
2019-04-30T09:54:04.362Z,101872.77
2019-04-30T09:56:34.306Z,101763.95
2019-04-30T09:59:03.331Z,101866.25
2019-04-30T10:01:38.735Z,101864.56
2019-04-30T10:04:19.955Z,101758.38
2019-04-30T10:06:49.888Z,101871.08
2019-04-30T10:09:17.114Z,101862.06
2019-04-30T10:12:09.675Z,101861.81
2019-04-30T10:14:40.779Z,101855.84
2019-04-30T10:20:19.078Z,101854.29
2019-04-30T10:22:46.863Z,101852.44
2019-04-30T10:25:14.634Z,101812.92
2019-04-30T10:27:42.504Z,101843.13
2019-04-30T10:30:10.497Z,101834.62
2019-04-30T10:32:38.413Z,101845.84
2019-04-30T10:35:06.327Z,101839.50
2019-04-30T10:37:34.078Z,101836.13
2019-04-30T10:40:01.916Z,101825.48
2019-04-30T10:42:31.070Z,101826.20
2019-04-30T10:45:02.939Z,101817.23
2019-04-30T10:47:32.663Z,101827.13
2019-04-30T10:50:17.748Z,101818.84
2019-04-30T10:52:45.737Z,101820.77
2019-04-30T10:55:13.765Z,101822.72
2019-04-30T10:57:41.559Z,101730.09
2019-04-30T11:00:10.419Z,101819.36
2019-04-30T11:02:38.714Z,101814.25
2019-04-30T11:05:06.717Z,101815.25
2019-04-30T11:07:34.473Z,101809.94
2019-04-30T11:10:03.966Z,101813.53
2019-04-30T11:12:33.125Z,101812.31
2019-04-30T11:15:02.421Z,101805.58
2019-04-30T11:17:33.247Z,101802.87
2019-04-30T11:20:01.551Z,101798.14
2019-04-30T11:22:33.193Z,101795.39
2019-04-30T11:25:02.785Z,101799.94
2019-04-30T11:27:31.518Z,101731.75
2019-04-30T11:30:03.525Z,101674.60
2019-04-30T11:32:29.390Z,101691.55
2019-04-30T11:34:57.423Z,101785.75
2019-04-30T11:37:25.185Z,101790.88
2019-04-30T11:39:52.957Z,101784.59
2019-04-30T11:42:20.735Z,101777.91
2019-04-30T11:44:54.147Z,101779.06
2019-04-30T11:47:25.992Z,101753.97
2019-04-30T11:49:54.000Z,101770.85
2019-04-30T11:52:21.867Z,101763.44
2019-04-30T11:54:54.191Z,101762.98
2019-04-30T11:57:19.238Z,101769.94
2019-04-30T11:59:46.998Z,101764.73
2019-04-30T12:02:22.561Z,101760.36
2019-04-30T12:04:50.343Z,101751.30
2019-04-30T12:07:33.845Z,101756.43
2019-04-30T12:10:14.556Z,101751.47
2019-04-30T12:12:42.306Z,101753.45
2019-04-30T12:15:10.086Z,101716.73
2019-04-30T12:17:38.013Z,101752.98
2019-04-30T12:20:05.825Z,101752.88
2019-04-30T12:22:33.592Z,101747.12
2019-04-30T12:25:04.909Z,101748.17
2019-04-30T12:27:30.936Z,101743.81
2019-04-30T12:29:59.469Z,101745.11
2019-04-30T12:32:29.689Z,101738.42
2019-04-30T12:34:56.915Z,101741.87
2019-04-30T12:37:24.737Z,101743.22
2019-04-30T12:40:05.545Z,101730.47
2019-04-30T12:42:28.700Z,101743.58
2019-04-30T12:44:56.699Z,101740.44
2019-04-30T12:47:25.595Z,101745.34
2019-04-30T12:50:00.865Z,101738.50
2019-04-30T12:52:33.301Z,101735.92
2019-04-30T12:55:15.666Z,101727.94
2019-04-30T12:57:42.462Z,101737.39
2019-04-30T13:00:10.423Z,101694.31
2019-04-30T13:02:38.177Z,101725.81
2019-04-30T13:05:20.707Z,101722.41
2019-04-30T13:07:51.027Z,101729.86
2019-04-30T13:10:19.663Z,101719.02
2019-04-30T13:12:48.253Z,101723.66
2019-04-30T13:15:16.470Z,101714.34
2019-04-30T13:17:44.353Z,101716.87
2019-04-30T13:20:18.561Z,101717.16
2019-04-30T13:22:44.095Z,101708.30
2019-04-30T13:25:11.113Z,101715.54
2019-04-30T13:27:42.249Z,101714.34
2019-04-30T13:30:29.825Z,101710.30
2019-04-30T13:33:05.141Z,101713.70
2019-04-30T13:35:33.045Z,101705.09
2019-04-30T13:38:09.152Z,101643.30
2019-04-30T13:40:49.702Z,101698.48
2019-04-30T13:43:18.256Z,101703.70
2019-04-30T13:45:46.196Z,101707.40
2019-04-30T13:48:26.109Z,101690.27
2019-04-30T13:51:04.474Z,101695.84
2019-04-30T13:53:32.427Z,101687.67
2019-04-30T13:56:00.824Z,101683.52
2019-04-30T13:58:28.806Z,101687.27
2019-04-30T14:00:56.724Z,101690.91
2019-04-30T14:03:33.941Z,101695.39
2019-04-30T14:06:01.882Z,101586.22
2019-04-30T14:08:34.049Z,101689.28
2019-04-30T14:11:02.253Z,101681.99
2019-04-30T14:13:35.010Z,101691.99
2019-04-30T14:16:03.074Z,101681.10
2019-04-30T14:18:34.053Z,101685.84
2019-04-30T14:21:01.058Z,101678.77
2019-04-30T14:23:28.885Z,101683.88
2019-04-30T14:25:57.048Z,101680.64
2019-04-30T14:28:25.514Z,101680.72
2019-04-30T14:30:53.419Z,101680.15
2019-04-30T14:33:26.272Z,101675.27
2019-04-30T14:35:50.721Z,101677.98
2019-04-30T14:38:19.114Z,101677.37
2019-04-30T14:40:47.523Z,101675.91
2019-04-30T14:43:44.857Z,101675.23
2019-04-30T14:46:32.577Z,101675.77
2019-04-30T14:49:29.839Z,101675.41
2019-04-30T14:51:59.534Z,101677.15
2019-04-30T14:54:37.057Z,101676.66
2019-04-30T14:57:26.661Z,101679.75
2019-04-30T15:00:19.174Z,101680.96
2019-04-30T15:02:51.242Z,101667.89
2019-04-30T15:05:19.601Z,101676.62
2019-04-30T15:07:47.464Z,101678.39
2019-04-30T15:10:15.226Z,101673.61
2019-04-30T15:12:42.976Z,101682.09
2019-04-30T15:15:10.724Z,101681.13
2019-04-30T15:17:39.180Z,101678.66
2019-04-30T15:20:08.826Z,101675.25
2019-04-30T15:22:38.990Z,101669.83
2019-04-30T15:25:06.995Z,101672.54
2019-04-30T15:27:34.724Z,101670.42
2019-04-30T15:30:03.293Z,101672.73
2019-04-30T15:32:31.134Z,101666.32
2019-04-30T15:35:05.428Z,101667.45
2019-04-30T15:37:48.671Z,101662.84
2019-04-30T15:40:16.702Z,101561.55
2019-04-30T15:42:46.429Z,101661.95
2019-04-30T15:45:16.176Z,101666.84
2019-04-30T15:47:43.996Z,101664.13
2019-04-30T15:50:11.800Z,101665.20
2019-04-30T15:52:39.633Z,101661.91
2019-04-30T15:55:09.052Z,101657.53
2019-04-30T15:57:54.509Z,101656.26
2019-04-30T16:00:22.459Z,101656.61
2019-04-30T16:02:57.464Z,101654.25
2019-04-30T16:05:32.444Z,101655.61
2019-04-30T16:08:16.038Z,101651.00
2019-04-30T16:11:08.226Z,101654.52
2019-04-30T16:14:18.586Z,101648.64
2019-04-30T16:16:53.769Z,101648.48
2019-04-30T16:19:28.699Z,101650.07
2019-04-30T16:22:03.244Z,101651.31
2019-04-30T16:24:38.756Z,101646.28
2019-04-30T16:27:06.739Z,101638.15
2019-04-30T16:29:34.587Z,101642.22
2019-04-30T16:32:02.385Z,101635.67
2019-04-30T16:34:30.554Z,101644.00
2019-04-30T16:36:59.003Z,101646.70
2019-04-30T16:39:28.719Z,101639.34
2019-04-30T16:41:56.460Z,101641.52
2019-04-30T16:44:24.266Z,101633.58
2019-04-30T16:46:59.656Z,101641.20
2019-04-30T16:50:09.639Z,101635.86
2019-04-30T16:52:39.681Z,101641.16
2019-04-30T16:55:59.512Z,101638.57
2019-04-30T16:58:29.081Z,101635.05
2019-04-30T17:01:08.902Z,101636.43
2019-04-30T17:03:50.500Z,101586.92
2019-04-30T17:06:19.754Z,101633.97
2019-04-30T17:08:54.187Z,101636.11
2019-04-30T17:11:39.806Z,101634.43
2019-04-30T17:14:10.543Z,101635.33
2019-04-30T17:16:39.138Z,101632.92
2019-04-30T17:19:08.987Z,101638.21
2019-04-30T17:21:44.027Z,101636.22
2019-04-30T17:24:14.033Z,101632.27
2019-04-30T17:29:09.594Z,101636.58
2019-04-30T17:31:37.745Z,101635.40
2019-04-30T17:34:05.626Z,101635.40
2019-04-30T17:36:33.438Z,101634.47
2019-04-30T17:39:01.263Z,101584.33
2019-04-30T17:41:29.915Z,101634.74
2019-04-30T17:43:58.975Z,101641.16
2019-04-30T17:46:28.518Z,101638.38
2019-04-30T17:48:56.415Z,101642.41
2019-04-30T17:51:24.208Z,101646.93
2019-04-30T17:54:13.159Z,101647.05
2019-04-30T17:56:41.027Z,101648.05
2019-04-30T17:59:08.901Z,101643.44
2019-04-30T18:01:39.938Z,101643.91
2019-04-30T18:04:06.339Z,101643.91
2019-04-30T18:06:34.082Z,101638.14
2019-04-30T18:09:01.941Z,101637.21
2019-04-30T18:11:30.118Z,101641.78
2019-04-30T18:13:58.995Z,101639.07
2019-04-30T18:16:28.679Z,101639.64
2019-04-30T18:21:45.831Z,101635.02
2019-04-30T18:24:31.352Z,101638.53
2019-04-30T18:27:03.322Z,101636.14
2019-04-30T18:29:31.119Z,101640.27
2019-04-30T18:31:59.891Z,101639.00
2019-04-30T18:34:29.213Z,101644.16
2019-04-30T18:36:59.216Z,101634.55
2019-04-30T18:39:31.713Z,101635.08
2019-04-30T18:42:02.687Z,101638.59
2019-04-30T18:44:30.467Z,101639.92
2019-04-30T18:46:59.062Z,101641.05
2019-04-30T18:49:28.622Z,101642.05
2019-04-30T18:51:59.044Z,101634.76
2019-04-30T18:54:28.918Z,101638.95
2019-04-30T18:56:56.452Z,101642.44
2019-04-30T18:59:24.230Z,101641.36
2019-04-30T19:01:52.262Z,101637.46
2019-04-30T19:04:20.096Z,101642.41
2019-04-30T19:06:47.951Z,101638.75
2019-04-30T19:09:35.121Z,101636.47
2019-04-30T19:12:21.011Z,101645.78
2019-04-30T19:15:10.695Z,101641.71
2019-04-30T19:17:56.278Z,101647.05
2019-04-30T19:20:30.957Z,101650.28
2019-04-30T19:22:58.763Z,101649.63
2019-04-30T19:25:28.861Z,101658.59
2019-04-30T19:28:09.059Z,101654.85
2019-04-30T19:30:26.403Z,101660.16
2019-04-30T19:32:54.235Z,101655.88
2019-04-30T19:35:22.225Z,101661.73
2019-04-30T19:37:59.266Z,101656.66
2019-04-30T19:40:28.634Z,101655.14
2019-04-30T19:43:24.001Z,101656.77
2019-04-30T19:45:52.327Z,101570.30
2019-04-30T19:48:20.110Z,101659.73
2019-04-30T19:50:48.853Z,101655.95
2019-04-30T19:53:19.934Z,101660.17
2019-04-30T19:55:46.174Z,101654.27
2019-04-30T19:58:26.202Z,101657.37
2019-04-30T20:00:44.344Z,101656.69
2019-04-30T20:03:12.139Z,101654.97
2019-04-30T20:05:39.931Z,101657.73
2019-04-30T20:08:20.246Z,101659.22
2019-04-30T20:10:49.602Z,101660.87
2019-04-30T20:13:30.574Z,101661.73
2019-04-30T20:15:49.274Z,101666.72
2019-04-30T20:18:16.458Z,101659.77
2019-04-30T20:20:47.177Z,101669.34
2019-04-30T20:23:14.937Z,101666.02
2019-04-30T20:25:42.801Z,101656.67
2019-04-30T20:28:12.217Z,101659.28
2019-04-30T20:30:40.193Z,101658.97
2019-04-30T20:33:09.095Z,101656.41
2019-04-30T20:35:36.927Z,101655.49
2019-04-30T20:38:26.941Z,101658.44
2019-04-30T20:41:00.306Z,101656.14
2019-04-30T20:43:24.310Z,101661.70
2019-04-30T20:45:52.199Z,101658.64
2019-04-30T20:48:20.183Z,101663.25
2019-04-30T20:50:47.940Z,101660.45
2019-04-30T20:53:15.934Z,101654.98
2019-04-30T20:55:43.674Z,101653.63
2019-04-30T20:58:11.606Z,101645.98
2019-04-30T21:00:39.419Z,101646.72
2019-04-30T21:03:07.147Z,101644.86
2019-04-30T21:05:35.325Z,101646.09
2019-04-30T21:08:11.882Z,101646.33
2019-04-30T21:10:39.767Z,101645.34
2019-04-30T21:13:10.943Z,101640.96
2019-04-30T21:15:36.971Z,101641.09
2019-04-30T21:18:04.831Z,101645.70
2019-04-30T21:20:32.696Z,101641.84
2019-04-30T21:23:00.448Z,101641.91
2019-04-30T21:25:29.197Z,101636.14
2019-04-30T21:27:57.149Z,101644.31
2019-04-30T21:30:24.946Z,101566.91
2019-04-30T21:33:10.650Z,101636.61
2019-04-30T21:35:52.655Z,101637.94
2019-04-30T21:38:20.543Z,101632.64
2019-04-30T21:40:49.217Z,101626.02
2019-04-30T21:43:17.031Z,101624.16
2019-04-30T21:45:44.767Z,101622.45
2019-04-30T21:48:12.522Z,101611.41
2019-04-30T21:50:40.242Z,101617.80
2019-04-30T21:53:09.718Z,101618.69
2019-04-30T21:55:39.609Z,101607.59
2019-04-30T21:58:06.903Z,101615.02
2019-04-30T22:01:05.615Z,101609.34
2019-04-30T22:03:33.332Z,101613.95
2019-04-30T22:06:01.122Z,101603.27
2019-04-30T22:08:28.868Z,101611.72
2019-04-30T22:10:58.175Z,101612.74
2019-04-30T22:13:26.431Z,101610.61
2019-04-30T22:15:54.178Z,101616.86
2019-04-30T22:18:21.911Z,101617.11
2019-04-30T22:20:49.872Z,101617.66
2019-04-30T22:23:17.882Z,101614.16
2019-04-30T22:25:45.596Z,101612.14
2019-04-30T22:28:13.574Z,101583.36
2019-04-30T22:30:41.360Z,101575.44
2019-04-30T22:33:10.830Z,101603.81
2019-04-30T22:36:03.672Z,101599.27
2019-04-30T22:38:35.283Z,101602.73
2019-04-30T22:41:03.067Z,101600.54
2019-04-30T22:43:30.805Z,101598.53
2019-04-30T22:46:03.578Z,101602.46
2019-04-30T22:48:31.282Z,101596.81
2019-04-30T22:50:59.007Z,101593.17
2019-04-30T22:53:26.783Z,101585.75
2019-04-30T22:55:55.596Z,101588.27
2019-04-30T22:58:25.054Z,101501.32
2019-04-30T23:01:18.815Z,101596.78
2019-04-30T23:03:46.946Z,101594.59
2019-04-30T23:06:14.676Z,101598.41
2019-04-30T23:08:42.403Z,101592.14
2019-04-30T23:11:10.190Z,101585.34
2019-04-30T23:13:37.997Z,101584.95
2019-04-30T23:16:05.835Z,101582.42
2019-04-30T23:18:33.588Z,101576.86
2019-04-30T23:21:01.351Z,101578.83
2019-04-30T23:23:29.157Z,101566.67
2019-04-30T23:25:56.936Z,101569.77
2019-04-30T23:28:26.378Z,101562.81
2019-04-30T23:30:54.120Z,101566.95
2019-04-30T23:33:21.852Z,101564.20
2019-04-30T23:35:49.562Z,101559.69
2019-04-30T23:38:17.271Z,101567.85
2019-04-30T23:40:46.070Z,101557.55
2019-04-30T23:43:13.805Z,101552.49
2019-04-30T23:45:41.518Z,101556.60
2019-04-30T23:48:09.227Z,101547.06
2019-04-30T23:50:36.990Z,101549.85
2019-04-30T23:53:04.723Z,101544.84
2019-04-30T23:55:32.439Z,101541.33
2019-04-30T23:58:00.164Z,101543.54
